sensor_id;sensor_type;location;lat;lon;timestamp;pressure;altitude;pressure_sealevel;temperature;humidity
44103;BME280;29769;42.178;24.742;2023-11-21T00:00:01;99481.69;;;6.42;100.00
44103;BME280;29769;42.178;24.742;2023-11-21T00:02:49;99480.84;;;6.31;100.00
44103;BME280;29769;42.178;24.742;2023-11-21T00:05:34;99477.38;;;6.21;100.00
44103;BME280;29769;42.178;24.742;2023-11-21T00:08:20;99483.47;;;6.11;100.00
44103;BME280;29769;42.178;24.742;2023-11-21T00:11:05;99482.59;;;6.05;100.00
44103;BME280;29769;42.178;24.742;2023-11-21T00:13:50;99474.78;;;5.94;100.00
44103;BME280;29769;42.178;24.742;2023-11-21T00:16:35;99482.59;;;5.87;100.00
44103;BME280;29769;42.178;24.742;2023-11-21T00:19:20;99473.03;;;6.05;100.00
44103;BME280;29769;42.178;24.742;2023-11-21T00:22:05;99473.88;;;6.35;100.00
44103;BME280;29769;42.178;24.742;2023-11-21T00:24:51;99473.81;;;6.50;100.00
44103;BME280;29769;42.178;24.742;2023-11-21T00:27:38;99460.78;;;6.33;100.00
44103;BME280;29769;42.178;24.742;2023-11-21T00:30:23;99478.19;;;6.42;100.00
44103;BME280;29769;42.178;24.742;2023-11-21T00:33:08;99468.63;;;6.38;100.00
44103;BME280;29769;42.178;24.742;2023-11-21T00:35:53;99469.50;;;6.38;100.00
44103;BME280;29769;42.178;24.742;2023-11-21T00:38:38;99466.91;;;6.40;100.00
44103;BME280;29769;42.178;24.742;2023-11-21T00:41:25;99467.78;;;6.36;100.00
44103;BME280;29769;42.178;24.742;2023-11-21T00:44:13;99477.34;;;6.32;100.00
44103;BME280;29769;42.178;24.742;2023-11-21T00:46:58;99459.06;;;6.29;100.00
44103;BME280;29769;42.178;24.742;2023-11-21T00:49:43;99476.47;;;6.32;100.00
44103;BME280;29769;42.178;24.742;2023-11-21T00:52:28;99482.56;;;6.28;100.00
44103;BME280;29769;42.178;24.742;2023-11-21T00:55:13;99479.97;;;6.24;100.00
44103;BME280;29769;42.178;24.742;2023-11-21T00:57:58;99478.25;;;6.20;100.00
44103;BME280;29769;42.178;24.742;2023-11-21T01:00:44;99478.25;;;6.27;100.00
44103;BME280;29769;42.178;24.742;2023-11-21T01:03:29;99482.59;;;6.26;100.00
44103;BME280;29769;42.178;24.742;2023-11-21T01:06:17;99477.34;;;6.24;100.00
44103;BME280;29769;42.178;24.742;2023-11-21T01:09:01;99486.09;;;6.22;100.00
44103;BME280;29769;42.178;24.742;2023-11-21T01:11:52;99485.22;;;6.17;100.00
44103;BME280;29769;42.178;24.742;2023-11-21T01:14:38;99493.03;;;6.15;100.00
44103;BME280;29769;42.178;24.742;2023-11-21T01:17:23;99481.72;;;6.04;100.00
44103;BME280;29769;42.178;24.742;2023-11-21T01:20:10;99480.88;;;5.95;100.00
44103;BME280;29769;42.178;24.742;2023-11-21T01:22:57;99473.03;;;5.87;100.00
44103;BME280;29769;42.178;24.742;2023-11-21T01:25:42;99468.63;;;5.86;100.00
44103;BME280;29769;42.178;24.742;2023-11-21T01:28:28;99455.59;;;5.86;100.00
44103;BME280;29769;42.178;24.742;2023-11-21T01:31:12;99466.94;;;5.88;100.00
44103;BME280;29769;42.178;24.742;2023-11-21T01:33:58;99470.44;;;5.93;100.00
44103;BME280;29769;42.178;24.742;2023-11-21T01:36:45;99466.94;;;5.93;100.00
44103;BME280;29769;42.178;24.742;2023-11-21T01:39:30;99476.53;;;5.98;100.00
44103;BME280;29769;42.178;24.742;2023-11-21T01:42:16;99470.41;;;5.96;100.00
44103;BME280;29769;42.178;24.742;2023-11-21T01:45:01;99466.06;;;5.95;100.00
44103;BME280;29769;42.178;24.742;2023-11-21T01:47:49;99466.94;;;5.97;100.00
44103;BME280;29769;42.178;24.742;2023-11-21T01:50:34;99465.22;;;5.90;100.00
44103;BME280;29769;42.178;24.742;2023-11-21T01:53:19;99464.31;;;5.85;100.00
44103;BME280;29769;42.178;24.742;2023-11-21T01:56:05;99437.31;;;5.56;100.00
44103;BME280;29769;42.178;24.742;2023-11-21T01:58:52;99466.88;;;5.55;100.00
44103;BME280;29769;42.178;24.742;2023-11-21T02:01:38;99465.16;;;5.52;100.00
44103;BME280;29769;42.178;24.742;2023-11-21T02:04:23;99459.91;;;5.46;100.00
44103;BME280;29769;42.178;24.742;2023-11-21T02:07:08;99463.41;;;5.47;100.00
44103;BME280;29769;42.178;24.742;2023-11-21T02:09:53;99458.19;;;5.53;100.00
44103;BME280;29769;42.178;24.742;2023-11-21T02:12:38;99456.47;;;5.49;100.00
44103;BME280;29769;42.178;24.742;2023-11-21T02:15:24;99442.50;;;5.13;100.00
44103;BME280;29769;42.178;24.742;2023-11-21T02:18:13;99451.16;;;5.06;100.00
44103;BME280;29769;42.178;24.742;2023-11-21T02:20:59;99451.97;;;4.88;100.00
44103;BME280;29769;42.178;24.742;2023-11-21T02:23:47;99463.94;;;4.55;100.00
44103;BME280;29769;42.178;24.742;2023-11-21T02:26:32;99464.72;;;4.37;100.00
44103;BME280;29769;42.178;24.742;2023-11-21T02:29:19;99471.69;;;4.41;100.00
44103;BME280;29769;42.178;24.742;2023-11-21T02:32:06;99469.97;;;4.43;100.00
44103;BME280;29769;42.178;24.742;2023-11-21T02:34:51;99474.28;;;4.41;100.00
44103;BME280;29769;42.178;24.742;2023-11-21T02:37:36;99464.72;;;4.34;100.00
44103;BME280;29769;42.178;24.742;2023-11-21T02:40:22;99459.50;;;4.32;100.00
44103;BME280;29769;42.178;24.742;2023-11-21T02:43:09;99457.75;;;4.28;100.00
44103;BME280;29769;42.178;24.742;2023-11-21T02:45:54;99469.84;;;4.23;100.00
44103;BME280;29769;42.178;24.742;2023-11-21T02:48:41;99467.25;;;4.22;100.00
44103;BME280;29769;42.178;24.742;2023-11-21T02:51:26;99462.91;;;4.21;100.00
44103;BME280;29769;42.178;24.742;2023-11-21T02:54:11;99465.53;;;4.22;100.00
44103;BME280;29769;42.178;24.742;2023-11-21T02:56:56;99473.31;;;4.18;100.00
44103;BME280;29769;42.178;24.742;2023-11-21T02:59:41;99458.53;;;4.15;100.00
44103;BME280;29769;42.178;24.742;2023-11-21T03:02:26;99464.47;;;3.94;100.00
44103;BME280;29769;42.178;24.742;2023-11-21T03:05:11;99469.59;;;3.85;100.00
44103;BME280;29769;42.178;24.742;2023-11-21T03:07:55;99468.75;;;3.91;100.00
44103;BME280;29769;42.178;24.742;2023-11-21T03:10:40;99474.03;;;3.98;100.00
44103;BME280;29769;42.178;24.742;2023-11-21T03:13:25;99451.44;;;3.93;100.00
44103;BME280;29769;42.178;24.742;2023-11-21T03:16:11;99479.34;;;4.18;100.00
44103;BME280;29769;42.178;24.742;2023-11-21T03:18:56;99482.94;;;4.31;100.00
44103;BME280;29769;42.178;24.742;2023-11-21T03:21:41;99472.59;;;4.44;100.00
44103;BME280;29769;42.178;24.742;2023-11-21T03:24:26;99466.56;;;4.52;100.00
44103;BME280;29769;42.178;24.742;2023-11-21T03:27:11;99460.47;;;4.51;100.00
44103;BME280;29769;42.178;24.742;2023-11-21T03:29:56;99469.19;;;4.61;100.00
44103;BME280;29769;42.178;24.742;2023-11-21T03:32:41;99463.84;;;4.33;100.00
44103;BME280;29769;42.178;24.742;2023-11-21T03:35:27;99472.56;;;4.38;100.00
44103;BME280;29769;42.178;24.742;2023-11-21T03:38:12;99480.25;;;4.20;100.00
44103;BME280;29769;42.178;24.742;2023-11-21T03:40:57;99473.28;;;4.15;100.00
44103;BME280;29769;42.178;24.742;2023-11-21T03:43:42;99469.03;;;4.30;100.00
44103;BME280;29769;42.178;24.742;2023-11-21T03:46:27;99480.16;;;4.10;100.00
44103;BME280;29769;42.178;24.742;2023-11-21T03:49:13;99478.50;;;4.13;100.00
44103;BME280;29769;42.178;24.742;2023-11-21T03:52:00;99485.44;;;4.17;100.00
44103;BME280;29769;42.178;24.742;2023-11-21T03:54:45;99482.69;;;3.97;100.00
44103;BME280;29769;42.178;24.742;2023-11-21T03:57:30;99490.44;;;3.91;100.00
44103;BME280;29769;42.178;24.742;2023-11-21T04:00:16;99495.59;;;3.87;100.00
44103;BME280;29769;42.178;24.742;2023-11-21T04:03:00;99503.97;;;3.51;100.00
44103;BME280;29769;42.178;24.742;2023-11-21T04:05:45;99504.66;;;3.33;100.00
44103;BME280;29769;42.178;24.742;2023-11-21T04:08:30;99497.75;;;3.35;100.00
44103;BME280;29769;42.178;24.742;2023-11-21T04:11:15;99487.44;;;3.44;100.00
44103;BME280;29769;42.178;24.742;2023-11-21T04:14:00;99486.50;;;3.38;100.00
44103;BME280;29769;42.178;24.742;2023-11-21T04:16:45;99499.47;;;3.35;100.00
44103;BME280;29769;42.178;24.742;2023-11-21T04:19:30;99493.38;;;3.31;100.00
44103;BME280;29769;42.178;24.742;2023-11-21T04:22:15;99483.81;;;3.30;100.00
44103;BME280;29769;42.178;24.742;2023-11-21T04:25:01;99488.25;;;3.42;100.00
44103;BME280;29769;42.178;24.742;2023-11-21T04:27:46;99483.88;;;3.38;100.00
44103;BME280;29769;42.178;24.742;2023-11-21T04:30:31;99492.44;;;3.25;100.00
44103;BME280;29769;42.178;24.742;2023-11-21T04:33:17;99516.69;;;3.25;100.00
44103;BME280;29769;42.178;24.742;2023-11-21T04:36:02;99513.28;;;3.32;100.00
44103;BME280;29769;42.178;24.742;2023-11-21T04:38:47;99521.97;;;3.33;100.00
44103;BME280;29769;42.178;24.742;2023-11-21T04:41:32;99512.59;;;3.47;100.00
44103;BME280;29769;42.178;24.742;2023-11-21T04:44:17;99509.13;;;3.48;100.00
44103;BME280;29769;42.178;24.742;2023-11-21T04:47:02;99496.16;;;3.49;100.00
44103;BME280;29769;42.178;24.742;2023-11-21T04:49:49;99503.94;;;3.48;100.00
44103;BME280;29769;42.178;24.742;2023-11-21T04:52:34;99511.72;;;3.46;100.00
44103;BME280;29769;42.178;24.742;2023-11-21T04:55:19;99514.31;;;3.46;100.00
44103;BME280;29769;42.178;24.742;2023-11-21T04:58:04;99509.16;;;3.49;100.00
44103;BME280;29769;42.178;24.742;2023-11-21T05:00:49;99514.38;;;3.52;100.00
44103;BME280;29769;42.178;24.742;2023-11-21T05:03:34;99511.78;;;3.52;100.00
44103;BME280;29769;42.178;24.742;2023-11-21T05:06:19;99503.13;;;3.55;100.00
44103;BME280;29769;42.178;24.742;2023-11-21T05:09:04;99501.50;;;3.66;100.00
44103;BME280;29769;42.178;24.742;2023-11-21T05:11:49;99498.03;;;3.63;100.00
44103;BME280;29769;42.178;24.742;2023-11-21T05:14:34;99452.72;;;3.39;100.00
44103;BME280;29769;42.178;24.742;2023-11-21T05:17:19;99509.34;;;3.68;100.00
44103;BME280;29769;42.178;24.742;2023-11-21T05:20:05;99507.63;;;3.71;100.00
44103;BME280;29769;42.178;24.742;2023-11-21T05:22:53;99521.50;;;3.72;100.00
44103;BME280;29769;42.178;24.742;2023-11-21T05:25:38;99523.97;;;3.58;100.00
44103;BME280;29769;42.178;24.742;2023-11-21T05:28:23;99518.16;;;3.85;100.00
44103;BME280;29769;42.178;24.742;2023-11-21T05:31:08;99517.47;;;4.04;100.00
44103;BME280;29769;42.178;24.742;2023-11-21T05:33:53;99508.75;;;4.02;100.00
44103;BME280;29769;42.178;24.742;2023-11-21T05:36:38;99511.34;;;4.02;100.00
44103;BME280;29769;42.178;24.742;2023-11-21T05:39:23;99494.84;;;3.97;100.00
44103;BME280;29769;42.178;24.742;2023-11-21T05:42:09;99517.44;;;4.06;100.00
44103;BME280;29769;42.178;24.742;2023-11-21T05:44:55;99520.97;;;4.14;100.00
44103;BME280;29769;42.178;24.742;2023-11-21T05:47:44;99514.91;;;4.15;100.00
44103;BME280;29769;42.178;24.742;2023-11-21T05:50:30;99525.34;;;4.16;100.00
44103;BME280;29769;42.178;24.742;2023-11-21T05:53:15;99527.84;;;3.99;100.00
44103;BME280;29769;42.178;24.742;2023-11-21T05:56:01;99530.38;;;3.93;100.00
44103;BME280;29769;42.178;24.742;2023-11-21T05:58:46;99521.94;;;4.28;100.00
44103;BME280;29769;42.178;24.742;2023-11-21T06:01:31;99518.81;;;4.82;100.00
44103;BME280;29769;42.178;24.742;2023-11-21T06:04:16;99520.84;;;5.69;100.00
44103;BME280;29769;42.178;24.742;2023-11-21T06:07:00;99513.00;;;6.62;100.00
44103;BME280;29769;42.178;24.742;2023-11-21T06:09:46;99512.72;;;7.35;100.00
44103;BME280;29769;42.178;24.742;2023-11-21T06:12:33;99514.84;;;8.04;100.00
44103;BME280;29769;42.178;24.742;2023-11-21T06:15:20;99514.66;;;9.14;100.00
44103;BME280;29769;42.178;24.742;2023-11-21T06:18:07;99518.09;;;9.82;100.00
44103;BME280;29769;42.178;24.742;2023-11-21T06:20:54;99533.16;;;10.27;100.00
44103;BME280;29769;42.178;24.742;2023-11-21T06:23:39;99533.50;;;11.04;100.00
44103;BME280;29769;42.178;24.742;2023-11-21T06:26:24;99526.28;;;11.14;100.00
44103;BME280;29769;42.178;24.742;2023-11-21T06:29:10;99526.25;;;11.98;100.00
44103;BME280;29769;42.178;24.742;2023-11-21T06:31:55;99523.84;;;11.88;99.04
44103;BME280;29769;42.178;24.742;2023-11-21T06:34:40;99520.72;;;11.69;99.26
44103;BME280;29769;42.178;24.742;2023-11-21T06:37:26;99521.81;;;11.59;100.00
44103;BME280;29769;42.178;24.742;2023-11-21T06:40:11;99522.97;;;11.87;99.60
44103;BME280;29769;42.178;24.742;2023-11-21T06:42:58;99528.56;;;11.74;98.78
44103;BME280;29769;42.178;24.742;2023-11-21T06:45:43;99528.72;;;12.04;99.50
44103;BME280;29769;42.178;24.742;2023-11-21T06:48:28;99514.22;;;12.22;98.87
44103;BME280;29769;42.178;24.742;2023-11-21T06:51:14;99518.81;;;12.82;95.35
44103;BME280;29769;42.178;24.742;2023-11-21T06:53:58;99513.97;;;13.30;90.39
44103;BME280;29769;42.178;24.742;2023-11-21T06:56:43;99514.72;;;13.35;86.80
44103;BME280;29769;42.178;24.742;2023-11-21T06:59:29;99517.44;;;13.61;82.56
44103;BME280;29769;42.178;24.742;2023-11-21T07:02:13;99519.53;;;13.79;67.72
44103;BME280;29769;42.178;24.742;2023-11-21T07:04:59;99515.63;;;14.45;66.11
44103;BME280;29769;42.178;24.742;2023-11-21T07:07:44;99523.91;;;15.35;61.96
44103;BME280;29769;42.178;24.742;2023-11-21T07:10:30;99515.41;;;15.02;59.81
44103;BME280;29769;42.178;24.742;2023-11-21T07:13:16;99524.59;;;15.17;59.36
44103;BME280;29769;42.178;24.742;2023-11-21T07:16:00;99523.94;;;15.10;59.49
44103;BME280;29769;42.178;24.742;2023-11-21T07:18:46;99522.59;;;15.70;58.39
44103;BME280;29769;42.178;24.742;2023-11-21T07:21:31;99519.69;;;16.83;54.78
44103;BME280;29769;42.178;24.742;2023-11-21T07:24:17;99512.72;;;16.61;54.19
44103;BME280;29769;42.178;24.742;2023-11-21T07:27:02;99512.16;;;16.31;54.46
44103;BME280;29769;42.178;24.742;2023-11-21T07:29:48;99507.72;;;16.31;53.96
44103;BME280;29769;42.178;24.742;2023-11-21T07:32:33;99502.09;;;15.74;55.94
44103;BME280;29769;42.178;24.742;2023-11-21T07:35:18;99509.91;;;15.55;56.96
44103;BME280;29769;42.178;24.742;2023-11-21T07:38:03;99508.72;;;15.16;59.38
44103;BME280;29769;42.178;24.742;2023-11-21T07:40:48;99512.16;;;15.66;58.58
44103;BME280;29769;42.178;24.742;2023-11-21T07:43:37;99508.94;;;16.66;55.99
44103;BME280;29769;42.178;24.742;2023-11-21T07:46:22;99479.63;;;16.88;52.57
44103;BME280;29769;42.178;24.742;2023-11-21T07:49:07;99519.75;;;17.02;52.68
44103;BME280;29769;42.178;24.742;2023-11-21T07:51:52;99514.19;;;17.27;51.60
44103;BME280;29769;42.178;24.742;2023-11-21T07:54:37;99520.16;;;16.93;52.41
44103;BME280;29769;42.178;24.742;2023-11-21T07:57:22;99516.06;;;17.64;51.05
44103;BME280;29769;42.178;24.742;2023-11-21T08:00:08;99497.22;;;17.87;49.35
44103;BME280;29769;42.178;24.742;2023-11-21T08:02:57;99522.34;;;18.17;48.39
44103;BME280;29769;42.178;24.742;2023-11-21T08:05:42;99502.03;;;17.60;49.49
44103;BME280;29769;42.178;24.742;2023-11-21T08:08:27;99510.91;;;18.15;48.49
44103;BME280;29769;42.178;24.742;2023-11-21T08:11:12;99508.25;;;18.69;47.67
44103;BME280;29769;42.178;24.742;2023-11-21T08:13:57;99523.44;;;17.57;50.48
44103;BME280;29769;42.178;24.742;2023-11-21T08:16:43;99508.34;;;17.39;51.50
44103;BME280;29769;42.178;24.742;2023-11-21T08:19:29;99492.00;;;17.28;51.90
44103;BME280;29769;42.178;24.742;2023-11-21T08:22:15;99506.34;;;17.63;51.18
44103;BME280;29769;42.178;24.742;2023-11-21T08:25:02;99508.94;;;17.83;50.59
44103;BME280;29769;42.178;24.742;2023-11-21T08:27:49;99497.31;;;19.25;47.04
44103;BME280;29769;42.178;24.742;2023-11-21T08:30:34;99487.25;;;20.55;43.48
44103;BME280;29769;42.178;24.742;2023-11-21T08:33:19;99485.34;;;21.86;41.15
44103;BME280;29769;42.178;24.742;2023-11-21T08:36:08;99480.75;;;23.82;36.36
44103;BME280;29769;42.178;24.742;2023-11-21T08:38:53;99480.13;;;25.31;32.59
44103;BME280;29769;42.178;24.742;2023-11-21T08:41:39;99468.31;;;26.32;30.88
44103;BME280;29769;42.178;24.742;2023-11-21T08:44:24;99468.03;;;26.67;30.12
44103;BME280;29769;42.178;24.742;2023-11-21T08:47:09;99458.72;;;25.96;29.93
44103;BME280;29769;42.178;24.742;2023-11-21T08:49:54;99464.63;;;24.19;32.68
44103;BME280;29769;42.178;24.742;2023-11-21T08:52:39;99459.63;;;24.49;32.04
44103;BME280;29769;42.178;24.742;2023-11-21T08:55:25;99462.13;;;23.05;34.05
44103;BME280;29769;42.178;24.742;2023-11-21T08:58:10;99423.72;;;22.00;36.05
44103;BME280;29769;42.178;24.742;2023-11-21T09:00:56;99441.66;;;21.71;36.80
44103;BME280;29769;42.178;24.742;2023-11-21T09:03:41;99444.97;;;21.48;37.18
44103;BME280;29769;42.178;24.742;2023-11-21T09:06:28;99441.22;;;21.65;37.55
44103;BME280;29769;42.178;24.742;2023-11-21T09:09:13;99437.13;;;21.45;37.72
44103;BME280;29769;42.178;24.742;2023-11-21T09:11:58;99432.34;;;21.08;38.14
44103;BME280;29769;42.178;24.742;2023-11-21T09:14:45;99426.75;;;22.08;36.06
44103;BME280;29769;42.178;24.742;2023-11-21T09:17:30;99410.31;;;20.46;38.07
44103;BME280;29769;42.178;24.742;2023-11-21T09:20:15;99427.66;;;20.97;37.97
44103;BME280;29769;42.178;24.742;2023-11-21T09:23:00;99416.44;;;21.76;37.18
44103;BME280;29769;42.178;24.742;2023-11-21T09:25:45;99406.88;;;22.90;35.47
44103;BME280;29769;42.178;24.742;2023-11-21T09:28:31;99403.06;;;22.02;36.29
44103;BME280;29769;42.178;24.742;2023-11-21T09:31:16;99409.69;;;20.99;38.50
44103;BME280;29769;42.178;24.742;2023-11-21T09:34:01;99389.97;;;21.30;38.13
44103;BME280;29769;42.178;24.742;2023-11-21T09:36:47;99396.72;;;22.30;36.27
44103;BME280;29769;42.178;24.742;2023-11-21T09:39:33;99389.75;;;21.74;36.69
44103;BME280;29769;42.178;24.742;2023-11-21T09:42:23;99387.56;;;20.83;37.68
44103;BME280;29769;42.178;24.742;2023-11-21T09:45:18;99391.41;;;20.49;38.27
44103;BME280;29769;42.178;24.742;2023-11-21T09:48:05;99398.34;;;20.81;38.01
44103;BME280;29769;42.178;24.742;2023-11-21T09:50:51;99386.81;;;21.23;37.30
44103;BME280;29769;42.178;24.742;2023-11-21T09:53:38;99379.00;;;21.88;36.28
44103;BME280;29769;42.178;24.742;2023-11-21T09:56:25;99375.06;;;22.21;35.15
44103;BME280;29769;42.178;24.742;2023-11-21T09:59:14;99367.50;;;22.78;34.53
44103;BME280;29769;42.178;24.742;2023-11-21T10:02:00;99350.91;;;23.34;33.38
44103;BME280;29769;42.178;24.742;2023-11-21T10:04:47;99358.28;;;23.80;32.82
44103;BME280;29769;42.178;24.742;2023-11-21T10:07:34;99353.16;;;24.93;31.58
44103;BME280;29769;42.178;24.742;2023-11-21T10:10:20;99341.25;;;25.62;30.00
44103;BME280;29769;42.178;24.742;2023-11-21T10:13:06;99333.75;;;25.97;29.50
44103;BME280;29769;42.178;24.742;2023-11-21T10:15:52;99326.16;;;26.02;29.39
44103;BME280;29769;42.178;24.742;2023-11-21T10:18:37;99312.41;;;26.05;28.61
44103;BME280;29769;42.178;24.742;2023-11-21T10:21:25;99316.63;;;26.61;28.40
44103;BME280;29769;42.178;24.742;2023-11-21T10:24:09;99313.03;;;27.02;27.83
44103;BME280;29769;42.178;24.742;2023-11-21T10:26:55;99310.38;;;27.70;27.73
44103;BME280;29769;42.178;24.742;2023-11-21T10:29:40;99306.69;;;28.00;26.88
44103;BME280;29769;42.178;24.742;2023-11-21T10:32:29;99304.31;;;28.16;26.45
44103;BME280;29769;42.178;24.742;2023-11-21T10:35:17;99310.72;;;28.62;25.50
44103;BME280;29769;42.178;24.742;2023-11-21T10:38:02;99294.03;;;28.66;25.75
44103;BME280;29769;42.178;24.742;2023-11-21T10:40:48;99295.81;;;29.32;24.99
44103;BME280;29769;42.178;24.742;2023-11-21T10:43:33;99299.09;;;29.98;24.29
44103;BME280;29769;42.178;24.742;2023-11-21T10:46:19;99298.63;;;30.02;24.02
44103;BME280;29769;42.178;24.742;2023-11-21T10:49:04;99285.63;;;27.84;25.26
44103;BME280;29769;42.178;24.742;2023-11-21T10:51:49;99295.28;;;26.48;26.98
44103;BME280;29769;42.178;24.742;2023-11-21T10:54:35;99290.00;;;25.19;28.51
44103;BME280;29769;42.178;24.742;2023-11-21T10:57:22;99292.56;;;24.54;29.81
44103;BME280;29769;42.178;24.742;2023-11-21T11:00:08;99285.41;;;24.88;29.53
44103;BME280;29769;42.178;24.742;2023-11-21T11:02:58;99288.91;;;24.55;29.46
44103;BME280;29769;42.178;24.742;2023-11-21T11:05:44;99271.19;;;23.71;30.99
44103;BME280;29769;42.178;24.742;2023-11-21T11:08:36;99274.72;;;23.72;31.28
44103;BME280;29769;42.178;24.742;2023-11-21T11:11:22;99263.44;;;23.56;31.34
44103;BME280;29769;42.178;24.742;2023-11-21T11:14:10;99267.88;;;21.81;33.47
44103;BME280;29769;42.178;24.742;2023-11-21T11:16:56;99267.97;;;20.99;35.83
44103;BME280;29769;42.178;24.742;2023-11-21T11:19:42;99260.16;;;19.67;38.07
44103;BME280;29769;42.178;24.742;2023-11-21T11:22:37;99245.00;;;18.91;40.33
44103;BME280;29769;42.178;24.742;2023-11-21T11:25:53;99246.41;;;17.84;42.92
44103;BME280;29769;42.178;24.742;2023-11-21T11:29:08;99240.44;;;17.44;44.41
44103;BME280;29769;42.178;24.742;2023-11-21T11:32:19;99235.41;;;16.46;46.79
44103;BME280;29769;42.178;24.742;2023-11-21T11:35:22;99205.16;;;15.72;49.28
44103;BME280;29769;42.178;24.742;2023-11-21T11:38:08;99191.03;;;15.72;50.77
44103;BME280;29769;42.178;24.742;2023-11-21T11:40:53;99182.09;;;15.54;52.25
44103;BME280;29769;42.178;24.742;2023-11-21T11:43:39;99173.00;;;15.39;52.58
44103;BME280;29769;42.178;24.742;2023-11-21T11:46:42;99177.63;;;15.56;52.78
44103;BME280;29769;42.178;24.742;2023-11-21T11:49:29;99179.00;;;15.02;53.94
44103;BME280;29769;42.178;24.742;2023-11-21T11:52:45;99179.00;;;15.23;53.85
44103;BME280;29769;42.178;24.742;2023-11-21T11:55:30;99184.47;;;15.40;53.56
44103;BME280;29769;42.178;24.742;2023-11-21T11:58:15;99166.91;;;15.17;54.17
44103;BME280;29769;42.178;24.742;2023-11-21T12:01:06;99146.75;;;15.13;55.02
44103;BME280;29769;42.178;24.742;2023-11-21T12:07:18;99156.31;;;15.17;55.50
44103;BME280;29769;42.178;24.742;2023-11-21T12:10:03;99162.91;;;15.27;55.33
44103;BME280;29769;42.178;24.742;2023-11-21T12:15:38;99152.00;;;15.14;55.06
44103;BME280;29769;42.178;24.742;2023-11-21T12:18:23;99162.34;;;15.21;55.54
44103;BME280;29769;42.178;24.742;2023-11-21T12:21:10;99154.13;;;14.85;56.57
44103;BME280;29769;42.178;24.742;2023-11-21T12:23:55;99153.88;;;14.91;56.74
44103;BME280;29769;42.178;24.742;2023-11-21T12:26:41;99144.56;;;15.02;56.28
44103;BME280;29769;42.178;24.742;2023-11-21T12:29:25;99166.91;;;15.17;55.65
44103;BME280;29769;42.178;24.742;2023-11-21T12:32:10;99181.50;;;15.47;55.17
44103;BME280;29769;42.178;24.742;2023-11-21T12:34:55;99183.84;;;15.75;53.49
44103;BME280;29769;42.178;24.742;2023-11-21T12:37:40;99172.09;;;15.99;53.26
44103;BME280;29769;42.178;24.742;2023-11-21T12:40:27;99163.53;;;15.74;52.92
44103;BME280;29769;42.178;24.742;2023-11-21T12:43:12;99153.13;;;15.29;54.99
44103;BME280;29769;42.178;24.742;2023-11-21T12:46:07;99167.78;;;15.58;54.90
44103;BME280;29769;42.178;24.742;2023-11-21T12:48:53;99151.94;;;15.77;54.39
44103;BME280;29769;42.178;24.742;2023-11-21T12:51:38;99144.94;;;15.55;54.10
44103;BME280;29769;42.178;24.742;2023-11-21T12:54:23;99133.50;;;15.13;55.29
44103;BME280;29769;42.178;24.742;2023-11-21T12:57:08;99134.56;;;14.89;56.52
44103;BME280;29769;42.178;24.742;2023-11-21T12:59:57;99128.38;;;14.88;57.29
44103;BME280;29769;42.178;24.742;2023-11-21T13:02:42;99139.69;;;14.72;57.30
44103;BME280;29769;42.178;24.742;2023-11-21T13:05:37;99119.91;;;14.80;57.07
44103;BME280;29769;42.178;24.742;2023-11-21T13:08:24;99139.00;;;15.08;56.39
44103;BME280;29769;42.178;24.742;2023-11-21T13:11:10;99142.78;;;15.23;55.97
44103;BME280;29769;42.178;24.742;2023-11-21T13:13:56;99139.94;;;15.68;54.77
44103;BME280;29769;42.178;24.742;2023-11-21T13:16:40;99133.63;;;16.10;53.02
44103;BME280;29769;42.178;24.742;2023-11-21T13:19:30;99134.53;;;16.46;51.89
44103;BME280;29769;42.178;24.742;2023-11-21T13:22:15;99132.47;;;16.71;50.98
44103;BME280;29769;42.178;24.742;2023-11-21T13:25:03;99133.72;;;16.81;50.25
44103;BME280;29769;42.178;24.742;2023-11-21T13:27:51;99144.38;;;16.99;49.28
44103;BME280;29769;42.178;24.742;2023-11-21T13:30:37;99139.97;;;16.80;49.34
44103;BME280;29769;42.178;24.742;2023-11-21T13:33:21;99144.22;;;16.84;49.17
44103;BME280;29769;42.178;24.742;2023-11-21T13:36:12;99147.50;;;16.89;49.66
44103;BME280;29769;42.178;24.742;2023-11-21T13:38:59;99149.00;;;17.12;48.84
44103;BME280;29769;42.178;24.742;2023-11-21T13:41:48;99148.84;;;16.98;48.92
44103;BME280;29769;42.178;24.742;2023-11-21T13:44:39;99140.63;;;17.20;49.14
44103;BME280;29769;42.178;24.742;2023-11-21T13:47:28;99146.41;;;17.28;48.19
44103;BME280;29769;42.178;24.742;2023-11-21T13:50:15;99145.41;;;17.48;48.06
44103;BME280;29769;42.178;24.742;2023-11-21T13:53:06;99146.03;;;17.53;48.10
44103;BME280;29769;42.178;24.742;2023-11-21T13:56:07;99143.06;;;17.07;48.42
44103;BME280;29769;42.178;24.742;2023-11-21T13:58:52;99144.28;;;16.83;49.55
44103;BME280;29769;42.178;24.742;2023-11-21T14:01:38;99141.88;;;16.60;50.49
44103;BME280;29769;42.178;24.742;2023-11-21T14:04:44;99149.34;;;16.70;50.40
44103;BME280;29769;42.178;24.742;2023-11-21T14:07:39;99145.75;;;16.53;50.83
44103;BME280;29769;42.178;24.742;2023-11-21T14:10:32;99140.66;;;16.48;51.39
44103;BME280;29769;42.178;24.742;2023-11-21T14:13:27;99148.97;;;16.40;51.33
44103;BME280;29769;42.178;24.742;2023-11-21T14:16:13;99155.88;;;16.07;52.48
44103;BME280;29769;42.178;24.742;2023-11-21T14:18:58;99151.25;;;15.72;53.21
44103;BME280;29769;42.178;24.742;2023-11-21T14:21:54;99139.69;;;15.34;54.93
44103;BME280;29769;42.178;24.742;2023-11-21T14:24:39;99160.75;;;15.17;55.56
44103;BME280;29769;42.178;24.742;2023-11-21T14:27:29;99151.38;;;14.66;57.57
44103;BME280;29769;42.178;24.742;2023-11-21T14:30:17;99156.72;;;14.43;59.32
44103;BME280;29769;42.178;24.742;2023-11-21T14:33:05;99148.38;;;14.07;60.62
44103;BME280;29769;42.178;24.742;2023-11-21T14:35:50;99127.88;;;13.67;62.51